createdAt,value
2018-07-23T00:00:40.533Z,72.48
2018-07-23T00:01:21.104Z,72.54
2018-07-23T00:02:01.667Z,72.73
2018-07-23T00:02:42.231Z,72.54
2018-07-23T00:03:22.799Z,72.58
2018-07-23T00:04:03.355Z,72.38
2018-07-23T00:04:43.933Z,72.34
2018-07-23T00:05:24.496Z,72.54
2018-07-23T00:06:05.078Z,72.54
2018-07-23T00:06:45.651Z,72.54
2018-07-23T00:07:26.198Z,71.86
2018-07-23T00:08:06.774Z,72.15
2018-07-23T00:08:47.323Z,72.63
2018-07-23T00:09:27.884Z,72.63
2018-07-23T00:10:08.465Z,72.92
2018-07-23T00:10:49.025Z,72.92
2018-07-23T00:11:29.585Z,73.02
2018-07-23T00:12:10.154Z,73.11
2018-07-23T00:12:50.725Z,73.02
2018-07-23T00:13:31.270Z,73.21
2018-07-23T00:14:11.844Z,73.02
2018-07-23T00:14:52.421Z,72.92
2018-07-23T00:15:32.986Z,73.02
2018-07-23T00:16:13.553Z,72.83
2018-07-23T00:16:54.123Z,73.5
2018-07-23T00:17:34.716Z,73.11
2018-07-23T00:18:15.299Z,72.83
2018-07-23T00:18:55.845Z,73.41
2018-07-23T00:19:36.432Z,73.5
2018-07-23T00:20:16.970Z,73.69
2018-07-23T00:20:57.526Z,73.6
2018-07-23T00:21:38.086Z,73.5
2018-07-23T00:22:18.649Z,73.21
2018-07-23T00:22:59.219Z,73.5
2018-07-23T00:23:39.810Z,73.79
2018-07-23T00:24:20.349Z,73.31
2018-07-23T00:25:00.920Z,73.31
2018-07-23T00:25:41.485Z,73.21
2018-07-23T00:26:22.035Z,73.31
2018-07-23T00:27:02.617Z,73.5
2018-07-23T00:27:43.178Z,73.41
2018-07-23T00:28:23.743Z,73.69
2018-07-23T00:29:04.305Z,73.79
2018-07-23T00:29:44.879Z,73.6
2018-07-23T00:30:25.465Z,73.6
2018-07-23T00:31:06.022Z,73.79
2018-07-23T00:31:46.601Z,73.79
2018-07-23T00:32:27.173Z,73.69
2018-07-23T00:33:07.732Z,73.31
2018-07-23T00:33:48.318Z,73.31
2018-07-23T00:34:28.872Z,73.47
2018-07-23T00:35:09.444Z,73.27
2018-07-23T00:35:50.008Z,73.85
2018-07-23T00:36:30.635Z,73.75
2018-07-23T00:37:11.187Z,73.37
2018-07-23T00:37:51.770Z,73.47
2018-07-23T00:38:32.346Z,73.37
2018-07-23T00:39:12.914Z,73.47
2018-07-23T00:39:53.478Z,73.66
2018-07-23T00:40:34.049Z,73.85
2018-07-23T00:41:14.616Z,73.66
2018-07-23T00:41:55.173Z,73.57
2018-07-23T00:42:35.749Z,73.47
2018-07-23T00:43:16.326Z,73.57
2018-07-23T00:43:56.887Z,73.47
2018-07-23T00:44:37.471Z,73.47
2018-07-23T00:45:18.016Z,73.66
2018-07-23T00:45:58.602Z,73.66
2018-07-23T00:46:39.177Z,73.47
2018-07-23T00:47:19.739Z,74.05
2018-07-23T00:48:00.313Z,73.37
2018-07-23T00:48:40.885Z,73.75
2018-07-23T00:49:21.452Z,73.66
2018-07-23T00:50:02.025Z,73.85
2018-07-23T00:50:42.584Z,73.75
2018-07-23T00:51:23.234Z,73.66
2018-07-23T00:52:03.801Z,73.85
2018-07-23T00:52:44.381Z,73.66
2018-07-23T00:53:24.946Z,73.75
2018-07-23T00:54:05.511Z,73.75
2018-07-23T00:54:46.078Z,73.95
2018-07-23T00:55:26.644Z,74.05
2018-07-23T00:56:07.195Z,74.05
2018-07-23T00:56:47.755Z,74.33
2018-07-23T00:57:28.324Z,74.14
2018-07-23T00:58:08.899Z,74.33
2018-07-23T00:58:49.491Z,74.05
2018-07-23T00:59:30.034Z,74.33
2018-07-23T01:00:10.603Z,74.52
2018-07-23T01:00:51.180Z,74.4
2018-07-23T01:01:31.760Z,74.52
2018-07-23T01:02:12.333Z,74.68
2018-07-23T01:02:52.899Z,74.68
2018-07-23T01:03:33.465Z,74.91
2018-07-23T01:04:14.026Z,75.2
2018-07-23T01:04:54.633Z,75.16
2018-07-23T01:05:35.206Z,75.4
2018-07-23T01:06:15.803Z,75.01
2018-07-23T01:06:56.360Z,75.2
2018-07-23T01:07:36.913Z,74.78
2018-07-23T01:08:17.482Z,75.26
2018-07-23T01:08:58.057Z,75.07
2018-07-23T01:09:38.602Z,75.2
2018-07-23T01:10:19.175Z,75.16
2018-07-23T01:10:59.731Z,75.49
2018-07-23T01:11:40.302Z,75.68
2018-07-23T01:12:20.865Z,75.68
2018-07-23T01:13:01.434Z,75.74
2018-07-23T01:13:42.007Z,75.3
2018-07-23T01:14:22.553Z,75.26
2018-07-23T01:15:03.103Z,75.93
2018-07-23T01:15:43.666Z,75.55
2018-07-23T01:16:24.232Z,75.88
2018-07-23T01:17:04.770Z,75.68
2018-07-23T01:17:45.344Z,75.74
2018-07-23T01:18:25.918Z,75.65
2018-07-23T01:19:06.516Z,75.88
2018-07-23T01:19:47.088Z,75.97
2018-07-23T01:20:27.639Z,75.84
2018-07-23T01:21:08.192Z,76.23
2018-07-23T01:21:48.763Z,75.84
2018-07-23T01:22:29.333Z,75.84
2018-07-23T01:23:09.901Z,76.26
2018-07-23T01:23:50.474Z,76.13
2018-07-23T01:24:31.021Z,76.13
2018-07-23T01:25:11.575Z,76.42
2018-07-23T01:25:52.147Z,76.03
2018-07-23T01:26:32.694Z,76.03
2018-07-23T01:27:13.248Z,76.61
2018-07-23T01:27:53.818Z,75.93
2018-07-23T01:28:34.394Z,76.42
2018-07-23T01:29:14.978Z,76.61
2018-07-23T01:29:55.539Z,75.93
2018-07-23T01:30:36.090Z,76.42
2018-07-23T01:31:16.652Z,75.93
2018-07-23T01:31:57.211Z,76.32
2018-07-23T01:32:37.754Z,77
2018-07-23T01:33:18.299Z,76.8
2018-07-23T01:33:58.862Z,77.09
2018-07-23T01:34:39.410Z,77.38
2018-07-23T01:35:19.974Z,77.28
2018-07-23T01:36:00.552Z,77.38
2018-07-23T01:36:41.119Z,77.28
2018-07-23T01:37:21.683Z,77.09
2018-07-23T01:38:02.248Z,77.67
2018-07-23T01:38:42.816Z,77.67
2018-07-23T01:39:23.387Z,77.67
2018-07-23T01:40:03.954Z,77.48
2018-07-23T01:40:44.526Z,77.48
2018-07-23T01:41:25.094Z,77.58
2018-07-23T01:42:05.657Z,77.76
2018-07-23T01:42:46.225Z,77.67
2018-07-23T01:43:26.796Z,77.86
2018-07-23T01:44:07.363Z,76.9
2018-07-23T01:44:47.923Z,77.09
2018-07-23T01:45:28.492Z,76.9
2018-07-23T01:46:09.059Z,77.48
2018-07-23T01:46:49.624Z,77.58
2018-07-23T01:47:30.195Z,77
2018-07-23T01:48:10.736Z,77.09
2018-07-23T01:48:51.315Z,77.19
2018-07-23T01:49:31.848Z,77
2018-07-23T01:50:12.425Z,77.76
2018-07-23T01:50:53.017Z,77.76
2018-07-23T01:51:33.627Z,77.48
2018-07-23T01:52:14.121Z,77.67
2018-07-23T01:52:54.687Z,77.76
2018-07-23T01:53:35.259Z,77.38
2018-07-23T01:54:15.829Z,77.76
2018-07-23T01:54:56.402Z,77.28
2018-07-23T01:55:36.975Z,77.38
2018-07-23T01:56:17.537Z,77.86
2018-07-23T01:56:58.088Z,78.06
2018-07-23T01:57:38.651Z,78.06
2018-07-23T01:58:19.227Z,78.06
2018-07-23T01:58:59.803Z,77.86
2018-07-23T01:59:40.382Z,77.86
2018-07-23T02:00:20.945Z,78.63
2018-07-23T02:01:01.513Z,78.54
2018-07-23T02:01:42.063Z,78.25
2018-07-23T02:02:22.620Z,78.34
2018-07-23T02:03:03.203Z,78.06
2018-07-23T02:03:43.773Z,78.06
2018-07-23T02:04:24.368Z,78.25
2018-07-23T02:05:04.944Z,78.15
2018-07-23T02:05:45.524Z,78.34
2018-07-23T02:06:26.093Z,78.34
2018-07-23T02:07:06.782Z,78.34
2018-07-23T02:07:47.392Z,78.54
2018-07-23T02:08:28.045Z,78.25
2018-07-23T02:09:08.632Z,78.34
2018-07-23T02:09:49.286Z,78.25
2018-07-23T02:10:29.845Z,78.25
2018-07-23T02:11:10.524Z,78.25
2018-07-23T02:11:51.154Z,78.34
2018-07-23T02:12:31.726Z,78.15
2018-07-23T02:13:12.310Z,78.25
2018-07-23T02:13:53.936Z,78.4
2018-07-23T02:14:34.502Z,78.83
2018-07-23T02:15:15.060Z,78.73
2018-07-23T02:15:55.610Z,79.11
2018-07-23T02:16:36.180Z,79.08
2018-07-23T02:17:16.736Z,78.79
2018-07-23T02:17:57.288Z,78.79
2018-07-23T02:18:37.874Z,79.08
2018-07-23T02:19:18.429Z,78.73
2018-07-23T02:19:58.993Z,78.88
2018-07-23T02:20:39.573Z,78.88
2018-07-23T02:21:20.136Z,79.31
2018-07-23T02:22:00.702Z,78.98
2018-07-23T02:22:41.262Z,79.27
2018-07-23T02:23:21.820Z,79.02
2018-07-23T02:24:02.381Z,79.56
2018-07-23T02:24:42.992Z,79.5
2018-07-23T02:25:23.561Z,79.69
2018-07-23T02:26:04.108Z,79.46
2018-07-23T02:26:44.708Z,79.85
2018-07-23T02:27:25.276Z,79.79
2018-07-23T02:28:05.841Z,79.66
2018-07-23T02:28:46.418Z,79.66
2018-07-23T02:29:26.974Z,79.75
2018-07-23T02:30:07.534Z,79.89
2018-07-23T02:30:48.116Z,79.17
2018-07-23T02:31:28.685Z,79.31
2018-07-23T02:32:09.252Z,79.02
2018-07-23T02:32:49.817Z,79.94
2018-07-23T02:33:30.380Z,79.56
2018-07-23T02:34:10.939Z,79.69
2018-07-23T02:34:51.497Z,79.85
2018-07-23T02:35:32.087Z,79.85
2018-07-23T02:36:12.660Z,80.14
2018-07-23T02:36:53.222Z,80.14
2018-07-23T02:37:33.785Z,80.43
2018-07-23T02:38:14.352Z,79.66
2018-07-23T02:38:54.925Z,80.04
2018-07-23T02:39:35.477Z,79.66
2018-07-23T02:40:16.048Z,79.66
2018-07-23T02:40:56.619Z,79.66
2018-07-23T02:41:37.188Z,79.27
2018-07-23T02:42:17.758Z,79.85
2018-07-23T02:42:58.304Z,79.85
2018-07-23T02:43:38.871Z,79.85
2018-07-23T02:44:19.448Z,79.85
2018-07-23T02:45:00.036Z,79.66
2018-07-23T02:45:40.574Z,79.85
2018-07-23T02:46:21.181Z,79.46
2018-07-23T02:47:01.756Z,79.56
2018-07-23T02:47:42.346Z,79.75
2018-07-23T02:48:22.906Z,79.85
2018-07-23T02:49:03.456Z,79.66
2018-07-23T02:49:44.023Z,79.85
2018-07-23T02:50:24.605Z,79.66
2018-07-23T02:51:05.159Z,79.36
2018-07-23T02:51:45.743Z,80.04
2018-07-23T02:52:26.318Z,80.33
2018-07-23T02:53:06.872Z,80.23
2018-07-23T02:53:47.435Z,80.04
2018-07-23T02:54:28.009Z,80.33
2018-07-23T02:55:08.569Z,80.04
2018-07-23T02:55:49.160Z,80.14
2018-07-23T02:56:29.706Z,79.85
2018-07-23T02:57:10.270Z,80.04
2018-07-23T02:57:50.864Z,79.94
2018-07-23T02:58:31.445Z,80.23
2018-07-23T02:59:12.016Z,80.04
2018-07-23T02:59:52.597Z,80.43
2018-07-23T03:00:33.165Z,80.33
2018-07-23T03:01:13.744Z,80.14
2018-07-23T03:01:54.313Z,79.94
2018-07-23T03:02:34.875Z,79.66
2018-07-23T03:03:15.441Z,79.66
2018-07-23T03:03:56.004Z,79.94
2018-07-23T03:04:36.559Z,79.94
2018-07-23T03:05:17.148Z,79.94
2018-07-23T03:05:57.719Z,79.85
2018-07-23T03:06:38.284Z,79.56
2018-07-23T03:07:18.853Z,79.94
2018-07-23T03:07:59.431Z,79.75
2018-07-23T03:08:39.990Z,79.66
2018-07-23T03:09:20.566Z,79.66
2018-07-23T03:10:01.120Z,79.27
2018-07-23T03:10:41.679Z,79.08
2018-07-23T03:11:22.233Z,79.27
2018-07-23T03:12:02.808Z,79.08
2018-07-23T03:12:43.373Z,79.08
2018-07-23T03:13:23.958Z,78.98
2018-07-23T03:14:04.501Z,78.88
2018-07-23T03:14:45.070Z,78.98
2018-07-23T03:15:25.630Z,78.59
2018-07-23T03:16:06.194Z,78.31
2018-07-23T03:16:46.746Z,78.4
2018-07-23T03:17:27.322Z,78.21
2018-07-23T03:18:07.898Z,78.21
2018-07-23T03:18:48.486Z,78.59
2018-07-23T03:19:29.050Z,78.69
2018-07-23T03:20:09.610Z,78.4
2018-07-23T03:20:50.193Z,78.21
2018-07-23T03:21:30.760Z,78.31
2018-07-23T03:22:11.318Z,78.11
2018-07-23T03:22:51.876Z,77.92
2018-07-23T03:23:32.443Z,77.92
2018-07-23T03:24:13.008Z,78.69
2018-07-23T03:24:53.571Z,77.73
2018-07-23T03:25:34.143Z,77.73
2018-07-23T03:26:14.714Z,77.83
2018-07-23T03:26:55.283Z,78.02
2018-07-23T03:27:35.851Z,77.92
2018-07-23T03:28:16.395Z,78.21
2018-07-23T03:28:56.962Z,77.83
2018-07-23T03:29:37.540Z,77.53
2018-07-23T03:30:18.141Z,77.63
2018-07-23T03:30:58.695Z,77.73
2018-07-23T03:31:39.266Z,76.86
2018-07-23T03:32:19.842Z,76.57
2018-07-23T03:33:00.399Z,77.25
2018-07-23T03:33:40.962Z,77.06
2018-07-23T03:34:21.529Z,76.96
2018-07-23T03:35:02.090Z,77.15
2018-07-23T03:35:42.656Z,77.06
2018-07-23T03:36:23.240Z,77.73
2018-07-23T03:37:03.802Z,77.15
2018-07-23T03:37:44.385Z,77.63
2018-07-23T03:38:24.955Z,76.96
2018-07-23T03:39:05.513Z,77.53
2018-07-23T03:39:46.078Z,77.92
2018-07-23T03:40:26.649Z,77.53
2018-07-23T03:41:07.215Z,77.06
2018-07-23T03:41:47.788Z,77.06
2018-07-23T03:42:28.353Z,76.86
2018-07-23T03:43:08.906Z,76.28
2018-07-23T03:43:49.475Z,76.76
2018-07-23T03:44:30.033Z,76.67
2018-07-23T03:45:10.596Z,76.57
2018-07-23T03:45:51.167Z,76.28
2018-07-23T03:46:31.740Z,76.86
2018-07-23T03:47:12.326Z,76.38
2018-07-23T03:47:52.885Z,76.38
2018-07-23T03:48:33.446Z,76.38
2018-07-23T03:49:14.012Z,77.06
2018-07-23T03:49:54.579Z,76.86
2018-07-23T03:50:35.144Z,77.15
2018-07-23T03:51:15.718Z,76.96
2018-07-23T03:51:56.286Z,77.25
2018-07-23T03:52:36.859Z,77.15
2018-07-23T03:53:17.428Z,77.15
2018-07-23T03:53:57.989Z,77.06
2018-07-23T03:54:38.561Z,76.96
2018-07-23T03:55:19.116Z,76.86
2018-07-23T03:55:59.679Z,76.76
2018-07-23T03:56:40.259Z,76.86
2018-07-23T03:57:20.815Z,76.76
2018-07-23T03:58:01.385Z,76.86
2018-07-23T03:58:41.962Z,77.06
2018-07-23T03:59:22.528Z,76.76
2018-07-23T04:00:03.088Z,76.76
2018-07-23T04:00:43.658Z,76.86
2018-07-23T04:01:24.191Z,76.76
2018-07-23T04:02:04.777Z,76.67
2018-07-23T04:02:45.345Z,76.86
2018-07-23T04:03:25.929Z,76.76
2018-07-23T04:04:06.504Z,76.86
2018-07-23T04:04:47.064Z,77.25
2018-07-23T04:05:27.691Z,76.28
2018-07-23T04:06:08.263Z,76.57
2018-07-23T04:06:48.812Z,76.38
2018-07-23T04:07:29.382Z,75.99
2018-07-23T04:08:09.960Z,76.09
2018-07-23T04:08:50.516Z,75.8
2018-07-23T04:09:31.095Z,75.61
2018-07-23T04:10:11.674Z,75.8
2018-07-23T04:10:52.668Z,75.8
2018-07-23T04:11:33.235Z,76.09
2018-07-23T04:12:13.809Z,76.48
2018-07-23T04:12:54.372Z,75.9
2018-07-23T04:13:35.004Z,76.09
2018-07-23T04:14:15.576Z,75.61
2018-07-23T04:14:56.159Z,75.8
2018-07-23T04:15:36.722Z,75.23
2018-07-23T04:16:17.286Z,75.61
2018-07-23T04:16:57.854Z,75.8
2018-07-23T04:17:38.426Z,75.42
2018-07-23T04:18:18.996Z,75.32
2018-07-23T04:18:59.564Z,75.42
2018-07-23T04:19:40.125Z,75.9
2018-07-23T04:20:20.697Z,75.99
2018-07-23T04:21:01.312Z,75.61
2018-07-23T04:21:41.855Z,75.8
2018-07-23T04:22:22.421Z,75.71
2018-07-23T04:23:02.979Z,75.71
2018-07-23T04:23:43.583Z,76.18
2018-07-23T04:24:24.144Z,75.8
2018-07-23T04:25:04.697Z,76.38
2018-07-23T04:25:45.261Z,75.9
2018-07-23T04:26:25.820Z,76.09
2018-07-23T04:27:06.388Z,75.71
2018-07-23T04:27:46.957Z,75.32
2018-07-23T04:28:27.541Z,75.23
2018-07-23T04:29:08.100Z,75.51
2018-07-23T04:29:48.658Z,75.71
2018-07-23T04:30:29.214Z,75.51
2018-07-23T04:31:09.774Z,75.71
2018-07-23T04:31:50.340Z,75.51
2018-07-23T04:32:30.944Z,75.71
2018-07-23T04:33:11.517Z,75.99
2018-07-23T04:33:52.141Z,76.18
2018-07-23T04:34:32.736Z,76.18
2018-07-23T04:35:13.352Z,75.8
2018-07-23T04:35:53.922Z,74.74
2018-07-23T04:36:34.496Z,75.42
2018-07-23T04:37:15.053Z,75.42
2018-07-23T04:37:55.635Z,75.71
2018-07-23T04:38:36.177Z,75.8
2018-07-23T04:39:16.742Z,76.09
2018-07-23T04:39:57.312Z,76.09
2018-07-23T04:40:37.870Z,76.09
2018-07-23T04:41:18.450Z,76.28
2018-07-23T04:41:59.020Z,76.09
2018-07-23T04:42:39.592Z,76.09
2018-07-23T04:43:20.173Z,75.71
2018-07-23T04:44:00.724Z,75.8
2018-07-23T04:44:41.284Z,76.09
2018-07-23T04:45:21.855Z,76.57
2018-07-23T04:46:02.430Z,76.48
2018-07-23T04:46:42.998Z,76.57
2018-07-23T04:47:23.582Z,76.18
2018-07-23T04:48:04.118Z,75.61
2018-07-23T04:48:44.671Z,75.13
2018-07-23T04:49:25.260Z,75.65
2018-07-23T04:50:05.790Z,75.61
2018-07-23T04:50:46.353Z,75.51
2018-07-23T04:51:26.935Z,75.61
2018-07-23T04:52:07.493Z,75.23
2018-07-23T04:52:48.039Z,75.23
2018-07-23T04:53:28.615Z,74.74
2018-07-23T04:54:09.187Z,74.84
2018-07-23T04:54:49.810Z,75.32
2018-07-23T04:55:30.377Z,74.74
2018-07-23T04:56:10.937Z,74.74
2018-07-23T04:56:51.567Z,74.93
2018-07-23T04:57:32.042Z,75.13
2018-07-23T04:58:12.616Z,75.61
2018-07-23T04:58:53.189Z,74.55
2018-07-23T04:59:33.755Z,74.55
2018-07-23T05:00:14.350Z,74.65
2018-07-23T05:00:54.933Z,74.74
2018-07-23T05:01:35.492Z,74.65
2018-07-23T05:02:16.046Z,75.32
2018-07-23T05:02:56.599Z,75.32
2018-07-23T05:03:37.178Z,75.8
2018-07-23T05:04:17.758Z,75.23
2018-07-23T05:04:58.323Z,74.84
2018-07-23T05:05:38.885Z,73.97
2018-07-23T05:06:19.494Z,74.4
2018-07-23T05:07:00.056Z,75.23
2018-07-23T05:07:40.613Z,75.61
2018-07-23T05:08:21.170Z,75.42
2018-07-23T05:09:01.729Z,75.42
2018-07-23T05:09:42.299Z,75.84
2018-07-23T05:10:22.863Z,75.71
2018-07-23T05:11:03.426Z,75.61
2018-07-23T05:11:44.013Z,75.16
2018-07-23T05:12:24.576Z,75.51
2018-07-23T05:13:05.131Z,74.88
2018-07-23T05:13:45.702Z,75.26
2018-07-23T05:14:26.270Z,74.88
2018-07-23T05:15:06.818Z,74.68
2018-07-23T05:15:47.378Z,74.49
2018-07-23T05:16:27.932Z,74.88
2018-07-23T05:17:08.511Z,74.68
2018-07-23T05:17:49.100Z,74.88
2018-07-23T05:18:29.695Z,74.4
2018-07-23T05:19:10.266Z,74.68
2018-07-23T05:19:50.816Z,74.88
2018-07-23T05:20:31.386Z,74.58
2018-07-23T05:21:11.949Z,74.68
2018-07-23T05:21:52.521Z,74.1
2018-07-23T05:22:33.096Z,74.2
2018-07-23T05:23:13.672Z,74.68
2018-07-23T05:23:54.282Z,74.97
2018-07-23T05:24:34.884Z,74.78
2018-07-23T05:25:15.348Z,74.68
2018-07-23T05:25:55.896Z,75.16
2018-07-23T05:26:36.443Z,74.68
2018-07-23T05:27:17.017Z,74.88
2018-07-23T05:27:57.602Z,74.3
2018-07-23T05:28:38.179Z,74.49
2018-07-23T05:29:18.748Z,74.88
2018-07-23T05:29:59.317Z,75.07
2018-07-23T05:30:39.899Z,75.07
2018-07-23T05:31:20.466Z,74.88
2018-07-23T05:32:01.089Z,74.3
2018-07-23T05:32:41.645Z,73.91
2018-07-23T05:33:22.217Z,74.01
2018-07-23T05:34:02.800Z,74.01
2018-07-23T05:34:43.364Z,73.82
2018-07-23T05:35:23.944Z,74.1
2018-07-23T05:36:04.501Z,73.72
2018-07-23T05:36:45.604Z,73.72
2018-07-23T05:37:26.174Z,73.53
2018-07-23T05:38:06.741Z,73.53
2018-07-23T05:38:47.327Z,73.72
2018-07-23T05:39:27.874Z,74.05
2018-07-23T05:40:08.438Z,74.05
2018-07-23T05:40:49.015Z,73.33
2018-07-23T05:41:29.587Z,73.57
2018-07-23T05:42:10.144Z,73.47
2018-07-23T05:42:50.707Z,72.79
2018-07-23T05:43:31.279Z,71.92
2018-07-23T05:44:11.836Z,72.34
2018-07-23T05:44:52.403Z,71.58
2018-07-23T05:45:32.966Z,71
2018-07-23T05:46:13.537Z,70.7
2018-07-23T05:46:54.099Z,70.32
2018-07-23T05:47:34.656Z,70.51
2018-07-23T05:48:15.229Z,70.32
2018-07-23T05:48:55.812Z,69.39
2018-07-23T05:49:36.390Z,68.81
2018-07-23T05:50:17.009Z,69.49
2018-07-23T05:50:57.595Z,69.87
2018-07-23T05:51:38.174Z,70.29
2018-07-23T05:52:18.735Z,70.58
2018-07-23T05:52:59.320Z,70.29
2018-07-23T05:53:39.898Z,70.2
2018-07-23T05:54:20.468Z,69.46
2018-07-23T05:55:01.034Z,69.71
2018-07-23T05:55:41.604Z,69.36
2018-07-23T05:56:22.174Z,68.68
2018-07-23T05:57:02.739Z,68.88
2018-07-23T05:57:43.361Z,68.82
2018-07-23T05:58:23.854Z,68.33
2018-07-23T05:59:04.418Z,68.33
2018-07-23T05:59:44.991Z,68.27
2018-07-23T06:00:25.573Z,67.3
2018-07-23T06:01:06.158Z,66.24
2018-07-23T06:01:46.713Z,65.17
2018-07-23T06:02:27.279Z,65.37
2018-07-23T06:03:07.854Z,65.47
2018-07-23T06:03:48.434Z,66.17
2018-07-23T06:04:29.001Z,65.98
2018-07-23T06:05:09.983Z,65.01
2018-07-23T06:05:50.567Z,65.01
2018-07-23T06:06:31.192Z,65.2
2018-07-23T06:07:11.729Z,64.24
2018-07-23T06:07:52.374Z,64.24
2018-07-23T06:08:32.958Z,63.49
2018-07-23T06:09:13.549Z,63.79
2018-07-23T06:09:54.124Z,64.37
2018-07-23T06:10:34.696Z,63.89
2018-07-23T06:11:15.273Z,64.17
2018-07-23T06:11:55.865Z,64.17
2018-07-23T06:12:36.461Z,63.89
2018-07-23T06:13:17.020Z,63.04
2018-07-23T06:13:57.668Z,63.62
2018-07-23T06:14:38.243Z,63.24
2018-07-23T06:15:18.833Z,63.62
2018-07-23T06:15:59.410Z,63.24
2018-07-23T06:16:39.989Z,63.43
2018-07-23T06:17:20.571Z,62.27
2018-07-23T06:18:01.153Z,62.49
2018-07-23T06:18:41.728Z,61.52
2018-07-23T06:19:22.303Z,62.01
2018-07-23T06:20:02.874Z,62.4
2018-07-23T06:20:43.450Z,61.24
2018-07-23T06:21:24.025Z,59.69
2018-07-23T06:22:04.599Z,60.36
2018-07-23T06:22:45.176Z,60.94
2018-07-23T06:23:25.754Z,61.07
2018-07-23T06:24:06.554Z,60.97
2018-07-23T06:24:47.161Z,61.46
2018-07-23T06:25:27.731Z,61.07
2018-07-23T06:26:08.311Z,60.3
2018-07-23T06:26:48.894Z,60.88
2018-07-23T06:27:29.473Z,60.97
2018-07-23T06:28:10.054Z,59.45
2018-07-23T06:28:50.623Z,59.13
2018-07-23T06:29:31.201Z,57.8
2018-07-23T06:30:11.794Z,58.39
2018-07-23T06:30:52.340Z,58.39
2018-07-23T06:31:32.967Z,58.09
2018-07-23T06:32:13.565Z,58.29
2018-07-23T06:32:54.127Z,57.8
2018-07-23T06:33:34.703Z,58.39
2018-07-23T06:34:15.285Z,58.77
2018-07-23T06:34:55.855Z,58.87
2018-07-23T06:35:36.418Z,59.09
2018-07-23T06:36:16.979Z,57.15
2018-07-23T06:36:57.566Z,56.57
2018-07-23T06:37:38.257Z,55.87
2018-07-23T06:38:18.726Z,56.35
2018-07-23T06:38:59.314Z,56.86
2018-07-23T06:39:39.892Z,56.37
2018-07-23T06:40:20.533Z,56.67
2018-07-23T06:41:01.117Z,56.86
2018-07-23T06:41:41.676Z,57.25
2018-07-23T06:42:22.262Z,56.96
2018-07-23T06:43:02.838Z,57.06
2018-07-23T06:43:43.420Z,57.34
2018-07-23T06:44:24.077Z,57.73
2018-07-23T06:45:04.684Z,55.99
2018-07-23T06:45:45.247Z,54.92
2018-07-23T06:46:25.839Z,55.6
2018-07-23T06:47:06.422Z,55.99
2018-07-23T06:47:47.007Z,56.28
2018-07-23T06:48:27.579Z,57.34
2018-07-23T06:49:08.156Z,56.57
2018-07-23T06:49:48.731Z,56.5
2018-07-23T06:50:29.300Z,56.6
2018-07-23T06:51:09.888Z,56.98
2018-07-23T06:51:50.485Z,57.28
2018-07-23T06:52:31.066Z,56.89
2018-07-23T06:53:11.762Z,56.79
2018-07-23T06:53:52.345Z,56.04
2018-07-23T06:54:32.927Z,55.27
2018-07-23T06:55:13.508Z,55.85
2018-07-23T06:55:54.107Z,56.04
2018-07-23T06:56:34.690Z,56.43
2018-07-23T06:57:15.288Z,56.52
2018-07-23T06:57:55.921Z,55.85
2018-07-23T06:58:36.428Z,55.85
2018-07-23T06:59:17.077Z,55.46
2018-07-23T06:59:57.657Z,55.46
2018-07-23T07:00:38.248Z,55.27
2018-07-23T07:01:18.810Z,55.27
2018-07-23T07:01:59.394Z,54.29
2018-07-23T07:02:39.983Z,53.91
2018-07-23T07:03:20.594Z,53.71
2018-07-23T07:04:01.139Z,53.45
2018-07-23T07:04:41.749Z,52.76
2018-07-23T07:05:22.317Z,52.67
2018-07-23T07:06:02.901Z,53.25
2018-07-23T07:06:43.492Z,55.1
2018-07-23T07:07:24.070Z,55.39
2018-07-23T07:08:04.655Z,55.1
2018-07-23T07:08:45.254Z,54.71
2018-07-23T07:09:25.840Z,54.9
2018-07-23T07:10:06.468Z,53.96
2018-07-23T07:10:47.124Z,53.93
2018-07-23T07:11:27.620Z,54.15
2018-07-23T07:12:08.206Z,54.13
2018-07-23T07:12:48.785Z,53.83
2018-07-23T07:13:29.418Z,51.21
2018-07-23T07:14:09.967Z,50.53
2018-07-23T07:14:50.560Z,50.63
2018-07-23T07:15:31.136Z,49.95
2018-07-23T07:16:11.711Z,49.56
2018-07-23T07:16:52.281Z,49.66
2018-07-23T07:17:32.873Z,49.17
2018-07-23T07:18:13.471Z,49.95
2018-07-23T07:18:54.090Z,49.85
2018-07-23T07:19:34.685Z,52.09
2018-07-23T07:20:15.263Z,50.41
2018-07-23T07:20:55.832Z,49.82
2018-07-23T07:21:36.482Z,50.6
2018-07-23T07:22:17.090Z,50.6
2018-07-23T07:22:57.777Z,52.55
2018-07-23T07:23:38.357Z,53.16
2018-07-23T07:24:18.921Z,53.16
2018-07-23T07:25:00.436Z,52.96
2018-07-23T07:25:40.957Z,52.96
2018-07-23T07:26:21.525Z,53.06
2018-07-23T07:27:02.095Z,52.31
2018-07-23T07:27:42.669Z,52.59
2018-07-23T07:28:23.229Z,52.79
2018-07-23T07:29:03.816Z,52.01
2018-07-23T07:29:44.387Z,49.97
2018-07-23T07:30:25.072Z,49.68
2018-07-23T07:31:05.679Z,48.61
2018-07-23T07:31:46.251Z,49.87
2018-07-23T07:32:26.835Z,50.16
2018-07-23T07:33:07.385Z,51.14
2018-07-23T07:33:47.971Z,51.04
2018-07-23T07:34:28.542Z,50.75
2018-07-23T07:35:09.116Z,51.36
2018-07-23T07:35:49.709Z,50.38
2018-07-23T07:36:30.263Z,50.19
2018-07-23T07:37:10.859Z,50.78
2018-07-23T07:37:51.457Z,50.87
2018-07-23T07:38:32.015Z,50.97
2018-07-23T07:39:12.590Z,50.78
2018-07-23T07:39:53.172Z,50.09
2018-07-23T07:40:33.748Z,50.19
2018-07-23T07:41:14.328Z,47.66
2018-07-23T07:41:54.921Z,49.12
2018-07-23T07:42:35.497Z,48.15
2018-07-23T07:43:16.127Z,48.63
2018-07-23T07:43:56.714Z,49.9
2018-07-23T07:44:37.302Z,48.95
2018-07-23T07:45:17.877Z,48.27
2018-07-23T07:45:58.454Z,47.88
2018-07-23T07:46:39.007Z,47.3
2018-07-23T07:47:19.582Z,46.03
2018-07-23T07:48:00.167Z,45.45
2018-07-23T07:48:40.749Z,45.84
2018-07-23T07:49:21.323Z,47.78
2018-07-23T07:50:01.910Z,47.39
2018-07-23T07:50:42.491Z,47.2
2018-07-23T07:51:23.093Z,47.17
2018-07-23T07:52:03.688Z,48.36
2018-07-23T07:52:44.296Z,47.96
2018-07-23T07:53:24.869Z,47.59
2018-07-23T07:54:05.451Z,47.39
2018-07-23T07:54:46.050Z,48.17
2018-07-23T07:55:26.634Z,47.98
2018-07-23T07:56:07.236Z,47.69
2018-07-23T07:56:47.813Z,46.23
2018-07-23T07:57:28.393Z,46.51
2018-07-23T07:58:08.995Z,46.23
2018-07-23T07:58:49.622Z,47.78
2018-07-23T07:59:30.157Z,47.69
2018-07-23T08:00:10.743Z,47.69
2018-07-23T08:00:51.307Z,47.3
2018-07-23T08:01:31.888Z,48.07
2018-07-23T08:02:12.474Z,47
2018-07-23T08:02:53.044Z,45.54
2018-07-23T08:03:33.625Z,45.15
2018-07-23T08:04:14.202Z,43.89
2018-07-23T08:04:54.767Z,44.06
2018-07-23T08:05:35.333Z,45.14
2018-07-23T08:06:15.917Z,47.08
2018-07-23T08:06:56.512Z,47.56
2018-07-23T08:07:37.095Z,47.47
2018-07-23T08:08:17.677Z,48.25
2018-07-23T08:08:58.258Z,48.25
2018-07-23T08:09:38.821Z,47.17
2018-07-23T08:10:19.403Z,45.32
2018-07-23T08:10:59.988Z,43.67
2018-07-23T08:11:40.563Z,44.65
2018-07-23T08:12:21.135Z,44.74
2018-07-23T08:13:01.718Z,44.45
2018-07-23T08:13:42.306Z,45.52
2018-07-23T08:14:22.917Z,44.94
2018-07-23T08:15:03.490Z,44.84
2018-07-23T08:15:44.069Z,46.4
2018-07-23T08:16:24.652Z,46.5
2018-07-23T08:17:05.237Z,47.17
2018-07-23T08:17:45.817Z,47.17
2018-07-23T08:18:26.369Z,48.05
2018-07-23T08:19:06.955Z,47.76
2018-07-23T08:19:47.531Z,47.86
2018-07-23T08:20:28.113Z,48.25
2018-07-23T08:21:08.708Z,47.56
2018-07-23T08:21:49.267Z,47.1
2018-07-23T08:22:29.924Z,45.42
2018-07-23T08:23:10.499Z,44.65
2018-07-23T08:23:51.089Z,45.14
2018-07-23T08:24:31.668Z,46.4
2018-07-23T08:25:12.319Z,46.4
2018-07-23T08:25:52.827Z,47.08
2018-07-23T08:26:33.407Z,45.23
2018-07-23T08:27:13.976Z,44.45
2018-07-23T08:27:54.606Z,45.62
2018-07-23T08:28:35.111Z,46.4
2018-07-23T08:29:15.689Z,46.3
2018-07-23T08:29:56.265Z,46.3
2018-07-23T08:30:36.876Z,45.14
2018-07-23T08:31:17.469Z,43.19
2018-07-23T08:31:58.234Z,44.26
2018-07-23T08:32:38.571Z,43.96
2018-07-23T08:33:19.189Z,44.35
2018-07-23T08:33:59.813Z,43.67
2018-07-23T08:34:40.333Z,44.16
2018-07-23T08:35:20.891Z,45.04
2018-07-23T08:36:01.496Z,45.23
2018-07-23T08:36:42.075Z,45.72
2018-07-23T08:37:22.665Z,46.3
2018-07-23T08:38:03.238Z,45.72
2018-07-23T08:38:43.814Z,44.45
2018-07-23T08:39:24.392Z,44.74
2018-07-23T08:40:04.995Z,42.9
2018-07-23T08:40:45.600Z,39.69
2018-07-23T08:41:26.249Z,40.17
2018-07-23T08:42:06.851Z,41.13
2018-07-23T08:42:47.434Z,42.78
2018-07-23T08:43:28.015Z,42.87
2018-07-23T08:44:08.588Z,42.49
2018-07-23T08:44:49.169Z,42.97